Weather at Estancia El Cencerro Airport

Public forecast

Using degrees Celsius for public forecast. Weather courtesy of forecast.io.

Closest aviation weather report (METAR) to Estancia El Cencerro Airport

Closest report is Nueva Hesperides International Airport, 137.4 nm (254.5 km) ESE.

2024/07/17 13:00 (retrieved 28 minutes ago)

SUSO 171300Z 28003KT 0100 FG VV/// 10/10 Q1026

Closest aviation forecast (TAF) to Estancia El Cencerro Airport

Closest forecast is Nueva Hesperides International Airport, 137.4 nm (254.5 km) ESE.

2024/07/17 12:57 (retrieved 31 minutes ago)

TAF SUSO 171130Z 1712/1812 25005KT 0800 FG OVC008 TX20/1718Z TN10/1811Z BECMG 1712/1715 9999 BKN020